createdAt,value
2018-12-16T00:02:27.438Z,28.30
2018-12-16T00:05:00.046Z,28.13
2018-12-16T00:07:37.277Z,29.30
2018-12-16T00:10:10.228Z,26.17
2018-12-16T00:12:47.349Z,27.53
2018-12-16T00:15:19.824Z,28.87
2018-12-16T00:17:52.941Z,26.13
2018-12-16T00:20:25.334Z,28.90
2018-12-16T00:22:57.789Z,26.87
2018-12-16T00:25:35.540Z,26.17
2018-12-16T00:28:08.177Z,27.87
2018-12-16T00:30:41.361Z,26.20
2018-12-16T00:33:13.833Z,27.77
2018-12-16T00:35:50.906Z,28.17
2018-12-16T00:38:24.193Z,26.40
2018-12-16T00:40:57.477Z,26.77
2018-12-16T00:43:28.806Z,23.00
2018-12-16T00:46:01.731Z,26.13
2018-12-16T00:48:34.829Z,26.90
2018-12-16T00:51:07.970Z,22.60
2018-12-16T00:53:40.391Z,27.57
2018-12-16T00:56:12.917Z,25.93
2018-12-16T00:58:46.366Z,21.37
2018-12-16T01:01:20.342Z,23.57
2018-12-16T01:03:52.969Z,23.67
2018-12-16T01:06:26.338Z,25.77
2018-12-16T01:08:59.511Z,22.63
2018-12-16T01:11:32.866Z,28.80
2018-12-16T01:14:06.288Z,26.57
2018-12-16T01:16:39.316Z,24.50
2018-12-16T01:19:13.181Z,22.23
2018-12-16T01:21:46.023Z,26.40
2018-12-16T01:24:19.349Z,24.63
2018-12-16T01:26:51.730Z,22.43
2018-12-16T01:29:24.308Z,23.40
2018-12-16T01:31:57.240Z,24.77
2018-12-16T01:34:30.732Z,26.03
2018-12-16T01:37:07.936Z,22.43
2018-12-16T01:39:45.234Z,26.87
2018-12-16T01:42:18.027Z,25.23
2018-12-16T01:44:51.361Z,22.97
2018-12-16T01:47:23.980Z,22.67
2018-12-16T01:49:57.645Z,26.10
2018-12-16T01:52:30.378Z,22.57
2018-12-16T01:55:03.487Z,28.17
2018-12-16T01:57:36.572Z,26.67
2018-12-16T02:00:10.878Z,21.23
2018-12-16T02:02:43.396Z,26.57
2018-12-16T02:05:16.389Z,27.03
2018-12-16T02:07:47.794Z,23.10
2018-12-16T02:10:20.964Z,25.97
2018-12-16T02:12:58.181Z,25.67
2018-12-16T02:15:31.363Z,28.40
2018-12-16T02:18:04.727Z,23.83
2018-12-16T02:20:37.528Z,23.27
2018-12-16T02:23:14.500Z,22.63
2018-12-16T02:25:47.140Z,20.57
2018-12-16T02:28:19.512Z,22.27
2018-12-16T02:30:52.852Z,23.27
2018-12-16T02:33:30.592Z,23.23
2018-12-16T02:36:01.370Z,24.53
2018-12-16T02:38:34.535Z,23.93
2018-12-16T02:41:07.721Z,21.53
2018-12-16T02:43:44.906Z,23.03
2018-12-16T02:46:17.989Z,23.63
2018-12-16T02:48:51.088Z,19.27
2018-12-16T02:51:23.493Z,22.27
2018-12-16T02:53:56.552Z,20.23
2018-12-16T02:56:29.776Z,19.77
2018-12-16T02:59:02.149Z,21.60
2018-12-16T03:01:35.321Z,18.47
2018-12-16T03:04:09.297Z,18.20
2018-12-16T03:06:42.117Z,21.50
2018-12-16T03:09:15.256Z,20.33
2018-12-16T03:11:48.461Z,17.80
2018-12-16T03:14:21.012Z,20.00
2018-12-16T03:16:54.143Z,18.60
2018-12-16T03:19:27.065Z,21.53
2018-12-16T03:22:00.333Z,20.57
2018-12-16T03:24:33.437Z,18.00
2018-12-16T03:27:05.863Z,16.63
2018-12-16T03:29:38.893Z,18.37
2018-12-16T03:32:11.977Z,20.37
2018-12-16T03:34:45.081Z,20.97
2018-12-16T03:37:18.301Z,17.50
2018-12-16T03:39:51.946Z,16.47
2018-12-16T03:42:25.020Z,20.83
2018-12-16T03:44:57.944Z,18.90
2018-12-16T03:47:30.301Z,16.67
2018-12-16T03:50:06.787Z,19.37
2018-12-16T03:52:39.993Z,20.47
2018-12-16T03:55:13.037Z,20.10
2018-12-16T03:57:45.623Z,20.20
2018-12-16T04:00:19.113Z,18.63
2018-12-16T04:02:56.405Z,19.80
2018-12-16T04:05:32.853Z,19.57
2018-12-16T04:08:09.352Z,16.70
2018-12-16T04:10:42.497Z,17.83
2018-12-16T04:13:15.593Z,19.00
2018-12-16T04:15:48.861Z,15.60
2018-12-16T04:18:22.275Z,15.57
2018-12-16T04:20:55.566Z,16.83
2018-12-16T04:23:29.221Z,18.77
2018-12-16T04:26:02.385Z,20.83
2018-12-16T04:28:35.865Z,17.77
2018-12-16T04:31:09.030Z,19.63
2018-12-16T04:33:42.225Z,18.03
2018-12-16T04:36:16.400Z,17.20
2018-12-16T04:38:52.810Z,14.83
2018-12-16T04:41:25.854Z,15.57
2018-12-16T04:43:58.160Z,15.60
2018-12-16T04:46:30.681Z,16.70
2018-12-16T04:49:03.987Z,18.03
2018-12-16T04:51:41.329Z,16.53
2018-12-16T04:54:14.468Z,17.73
2018-12-16T04:56:47.066Z,14.47
2018-12-16T04:59:19.493Z,14.93
2018-12-16T05:01:52.614Z,17.87
2018-12-16T05:04:25.830Z,15.60
2018-12-16T05:06:58.435Z,17.27
2018-12-16T05:09:31.545Z,18.30
2018-12-16T05:12:04.988Z,15.10
2018-12-16T05:14:37.942Z,16.33
2018-12-16T05:17:10.351Z,13.73
2018-12-16T05:19:43.550Z,15.60
2018-12-16T05:22:16.813Z,18.67
2018-12-16T05:24:49.488Z,13.17
2018-12-16T05:27:26.862Z,16.57
2018-12-16T05:29:59.576Z,16.40
2018-12-16T05:32:32.980Z,18.33
2018-12-16T05:35:06.785Z,16.40
2018-12-16T05:37:39.802Z,15.73
2018-12-16T05:40:17.105Z,15.97
2018-12-16T05:42:49.548Z,14.17
2018-12-16T05:45:21.934Z,15.70
2018-12-16T05:47:54.349Z,17.53
2018-12-16T05:50:27.768Z,15.70
2018-12-16T05:53:00.957Z,17.30
2018-12-16T05:55:33.715Z,19.23
2018-12-16T05:58:06.671Z,17.33
2018-12-16T06:00:39.729Z,16.80
2018-12-16T06:03:12.160Z,17.83
2018-12-16T06:05:45.477Z,15.20
2018-12-16T06:08:18.754Z,15.43
2018-12-16T06:10:51.151Z,14.90
2018-12-16T06:13:24.353Z,17.73
2018-12-16T06:15:57.321Z,18.17
2018-12-16T06:18:28.715Z,17.63
2018-12-16T06:21:05.873Z,15.80
2018-12-16T06:23:38.936Z,14.43
2018-12-16T06:26:11.859Z,15.63
2018-12-16T06:28:44.564Z,14.80
2018-12-16T06:31:17.821Z,15.90
2018-12-16T06:33:50.557Z,13.63
2018-12-16T06:36:23.778Z,13.63
2018-12-16T06:38:56.936Z,15.33
2018-12-16T06:41:29.847Z,16.87
2018-12-16T06:44:03.771Z,16.80
2018-12-16T06:46:36.129Z,17.83
2018-12-16T06:49:12.439Z,18.10
2018-12-16T06:51:45.729Z,15.17
2018-12-16T07:01:55.790Z,15.10
2018-12-16T07:04:28.990Z,15.67
2018-12-16T07:12:09.885Z,16.63
2018-12-16T07:14:42.311Z,18.80
2018-12-16T07:17:15.345Z,16.57
2018-12-16T07:19:48.536Z,16.93
2018-12-16T07:22:25.743Z,19.07
2018-12-16T07:24:58.207Z,20.17
2018-12-16T07:27:34.597Z,19.60
2018-12-16T07:30:08.459Z,17.90
2018-12-16T07:32:41.941Z,19.03
2018-12-16T07:35:14.288Z,19.57
2018-12-16T07:37:47.389Z,22.60
2018-12-16T07:40:19.697Z,20.10
2018-12-16T07:42:52.058Z,19.57
2018-12-16T07:45:24.154Z,15.83
2018-12-16T07:47:57.124Z,16.47
2018-12-16T07:50:29.817Z,18.17
2018-12-16T07:53:02.853Z,20.70
2018-12-16T07:55:35.395Z,19.20
2018-12-16T07:58:11.645Z,17.77
2018-12-16T08:00:44.159Z,15.47
2018-12-16T08:03:16.447Z,17.50
2018-12-16T08:05:48.839Z,18.07
2018-12-16T08:08:20.991Z,17.77
2018-12-16T08:10:53.518Z,17.03
2018-12-16T08:13:25.942Z,20.67
2018-12-16T08:15:58.819Z,18.67
2018-12-16T08:21:03.468Z,19.10
2018-12-16T08:23:39.894Z,17.10
2018-12-16T08:26:13.020Z,17.73
2018-12-16T08:28:45.454Z,18.10
2018-12-16T08:31:17.910Z,15.83
2018-12-16T08:33:50.446Z,19.07
2018-12-16T08:36:27.593Z,17.80
2018-12-16T08:38:59.757Z,23.67
2018-12-16T08:41:32.120Z,16.87
2018-12-16T08:44:04.470Z,21.23
2018-12-16T08:46:35.243Z,16.63
2018-12-16T08:49:08.155Z,15.07
2018-12-16T08:51:40.709Z,12.97
2018-12-16T08:54:12.957Z,16.03
2018-12-16T08:56:43.220Z,15.10
2018-12-16T08:59:19.287Z,17.17
2018-12-16T09:01:51.831Z,16.93
2018-12-16T09:04:24.077Z,15.73
2018-12-16T09:06:56.350Z,17.13
2018-12-16T09:09:28.875Z,20.40
2018-12-16T09:12:01.020Z,21.37
2018-12-16T09:14:33.326Z,21.77
2018-12-16T09:17:09.574Z,17.47
2018-12-16T09:19:41.836Z,20.67
2018-12-16T09:22:14.859Z,24.07
2018-12-16T09:24:47.379Z,19.40
2018-12-16T09:27:23.685Z,26.53
2018-12-16T09:29:55.957Z,24.50
2018-12-16T09:32:28.085Z,23.47
2018-12-16T09:35:04.517Z,24.90
2018-12-16T09:37:36.996Z,28.83
2018-12-16T09:40:10.126Z,19.97
2018-12-16T09:42:43.251Z,22.67
2018-12-16T09:45:16.368Z,23.33
2018-12-16T09:47:53.077Z,28.90
2018-12-16T09:50:25.532Z,23.87
2018-12-16T09:53:01.697Z,25.07
2018-12-16T09:55:33.912Z,25.27
2018-12-16T09:58:06.461Z,27.10
2018-12-16T10:00:38.806Z,29.13
2018-12-16T10:03:14.232Z,30.93
2018-12-16T10:05:45.105Z,28.30
2018-12-16T10:08:17.630Z,27.40
2018-12-16T10:10:49.969Z,27.47
2018-12-16T10:13:23.151Z,26.67
2018-12-16T10:15:56.100Z,25.87
2018-12-16T10:18:28.682Z,26.20
2018-12-16T10:21:01.766Z,27.47
2018-12-16T10:23:38.945Z,26.33
2018-12-16T10:26:15.256Z,26.97
2018-12-16T10:28:48.713Z,25.33
2018-12-16T10:31:21.676Z,26.93
2018-12-16T10:33:54.325Z,28.10
2018-12-16T10:36:27.363Z,26.43
2018-12-16T10:38:59.734Z,27.67
2018-12-16T10:41:32.639Z,22.90
2018-12-16T10:44:05.750Z,20.77
2018-12-16T10:46:38.741Z,21.23
2018-12-16T10:49:11.894Z,23.90
2018-12-16T10:51:44.931Z,21.23
2018-12-16T10:54:17.296Z,23.93
2018-12-16T10:56:49.928Z,23.80
2018-12-16T10:59:22.902Z,23.37
2018-12-16T11:01:56.140Z,21.47
2018-12-16T11:04:29.293Z,21.37
2018-12-16T11:07:02.360Z,22.33
2018-12-16T11:09:34.557Z,23.50
2018-12-16T11:12:10.796Z,23.63
2018-12-16T11:14:43.081Z,24.03
2018-12-16T11:17:16.107Z,28.87
2018-12-16T11:19:48.241Z,29.00
2018-12-16T11:22:20.773Z,26.03
2018-12-16T11:24:53.197Z,24.33
2018-12-16T11:27:26.189Z,25.77
2018-12-16T11:29:59.383Z,28.13
2018-12-16T11:32:32.132Z,29.80
2018-12-16T11:35:05.919Z,23.37
2018-12-16T11:37:38.483Z,25.20
2018-12-16T11:40:10.741Z,26.00
2018-12-16T11:42:44.101Z,23.93
2018-12-16T11:45:15.185Z,31.07
2018-12-16T11:47:47.756Z,32.67
2018-12-16T11:50:20.358Z,27.87
2018-12-16T11:52:53.514Z,26.57
2018-12-16T11:55:26.076Z,25.27
2018-12-16T11:57:59.048Z,28.00
2018-12-16T12:00:30.233Z,25.30
2018-12-16T12:03:02.568Z,26.97
2018-12-16T12:05:34.865Z,20.47
2018-12-16T12:08:06.008Z,28.23
2018-12-16T12:10:38.368Z,23.73
2018-12-16T12:13:10.917Z,25.43
2018-12-16T12:15:48.052Z,29.67
2018-12-16T12:18:21.283Z,27.73
2018-12-16T12:20:54.237Z,29.17
2018-12-16T12:23:27.304Z,27.60
2018-12-16T12:25:59.851Z,25.87
2018-12-16T12:28:32.419Z,26.97
2018-12-16T12:31:05.749Z,26.50
2018-12-16T12:33:42.121Z,24.53
2018-12-16T12:36:14.574Z,27.93
2018-12-16T12:38:47.866Z,26.07
2018-12-16T12:41:20.167Z,28.57
2018-12-16T12:43:52.562Z,29.33
2018-12-16T12:46:25.581Z,30.43
2018-12-16T12:48:58.808Z,32.60
2018-12-16T12:51:31.256Z,38.60
2018-12-16T12:54:04.134Z,30.40
2018-12-16T12:56:37.118Z,29.90
2018-12-16T12:59:09.571Z,28.53
2018-12-16T13:01:42.644Z,30.60
2018-12-16T13:04:15.048Z,32.53
2018-12-16T13:06:47.489Z,28.47
2018-12-16T13:09:20.527Z,36.80
2018-12-16T13:11:53.627Z,35.90
2018-12-16T13:14:26.626Z,31.10
2018-12-16T13:16:59.115Z,35.73
2018-12-16T13:19:31.967Z,38.57
2018-12-16T13:22:08.283Z,32.23
2018-12-16T13:24:50.214Z,35.57
2018-12-16T13:27:22.947Z,39.17
2018-12-16T13:29:55.284Z,45.77
2018-12-16T13:32:34.551Z,35.70
2018-12-16T13:35:07.650Z,46.03
2018-12-16T13:37:40.002Z,40.10
2018-12-16T13:40:12.405Z,42.33
2018-12-16T13:42:45.344Z,40.63
2018-12-16T13:45:17.710Z,40.70
2018-12-16T13:47:54.202Z,37.57
2018-12-16T13:50:27.246Z,35.60
2018-12-16T13:53:00.196Z,54.43
2018-12-16T13:55:33.011Z,44.97
2018-12-16T13:58:05.258Z,45.13
2018-12-16T14:00:38.286Z,42.33
2018-12-16T14:03:11.760Z,43.20
2018-12-16T14:05:46.858Z,45.57
2018-12-16T14:08:19.565Z,45.10
2018-12-16T14:10:52.525Z,36.77
2018-12-16T14:13:25.681Z,38.37
2018-12-16T14:15:57.941Z,37.47
2018-12-16T14:18:30.899Z,37.57
2018-12-16T14:21:05.131Z,37.97
2018-12-16T14:23:38.413Z,35.57
2018-12-16T14:26:11.616Z,38.20
2018-12-16T14:28:44.728Z,37.13
2018-12-16T14:31:17.802Z,33.40
2018-12-16T14:33:54.169Z,36.90
2018-12-16T14:36:28.439Z,36.70
2018-12-16T14:39:01.366Z,38.37
2018-12-16T14:41:33.573Z,38.03
2018-12-16T14:44:06.721Z,33.50
2018-12-16T14:46:38.892Z,40.90
2018-12-16T14:49:11.180Z,34.70
2018-12-16T14:51:44.179Z,38.97
2018-12-16T14:54:17.334Z,38.73
2018-12-16T14:56:50.976Z,38.67
2018-12-16T14:59:23.594Z,35.20
2018-12-16T15:01:56.078Z,38.53
2018-12-16T15:04:29.033Z,35.83
2018-12-16T15:07:01.575Z,38.67
2018-12-16T15:09:34.393Z,36.27
2018-12-16T15:12:06.991Z,36.70
2018-12-16T15:14:39.973Z,34.47
2018-12-16T15:17:13.295Z,40.50
2018-12-16T15:19:45.459Z,31.90
2018-12-16T15:22:17.531Z,33.17
2018-12-16T15:24:50.157Z,35.83
2018-12-16T15:27:23.095Z,36.13
2018-12-16T15:29:55.658Z,34.87
2018-12-16T15:32:27.724Z,38.40
2018-12-16T15:35:04.104Z,35.67
2018-12-16T15:37:37.165Z,38.13
2018-12-16T15:40:09.588Z,35.23
2018-12-16T15:42:45.852Z,33.80
2018-12-16T15:45:18.688Z,35.53
2018-12-16T15:47:51.826Z,34.43
2018-12-16T15:50:23.971Z,35.73
2018-12-16T15:52:56.295Z,31.90
2018-12-16T15:55:29.462Z,32.70
2018-12-16T15:58:02.426Z,35.27
2018-12-16T16:00:35.182Z,36.97
2018-12-16T16:03:08.160Z,34.60
2018-12-16T16:05:40.591Z,41.90
2018-12-16T16:08:16.408Z,37.37
2018-12-16T16:10:52.749Z,36.90
2018-12-16T16:13:25.184Z,35.73
2018-12-16T16:15:57.623Z,35.33
2018-12-16T16:18:30.094Z,36.37
2018-12-16T16:21:03.245Z,37.50
2018-12-16T16:23:35.712Z,34.63
2018-12-16T16:26:08.195Z,31.90
2018-12-16T16:28:44.252Z,34.90
2018-12-16T16:31:17.345Z,34.20
2018-12-16T16:33:49.772Z,36.87
2018-12-16T16:36:22.105Z,31.33
2018-12-16T16:38:55.165Z,33.97
2018-12-16T16:41:31.452Z,39.37
2018-12-16T16:44:04.052Z,35.77
2018-12-16T16:46:36.879Z,35.40
2018-12-16T16:49:10.129Z,35.60
2018-12-16T16:51:42.344Z,34.80
2018-12-16T16:54:12.873Z,39.00
2018-12-16T16:56:50.182Z,33.27
2018-12-16T16:59:23.175Z,36.97
2018-12-16T17:01:59.925Z,36.70
2018-12-16T17:04:32.973Z,37.40
2018-12-16T17:07:05.702Z,34.40
2018-12-16T17:09:39.663Z,35.10
2018-12-16T17:12:13.012Z,33.80
2018-12-16T17:14:46.195Z,36.93
2018-12-16T17:17:19.268Z,36.73
2018-12-16T17:19:52.280Z,34.50
2018-12-16T17:22:25.281Z,36.43
2018-12-16T17:25:02.393Z,34.80
2018-12-16T17:27:34.736Z,35.40
2018-12-16T17:30:11.717Z,40.17
2018-12-16T17:32:48.144Z,40.43
2018-12-16T17:35:20.918Z,38.03
2018-12-16T17:37:53.817Z,37.10
2018-12-16T17:40:29.989Z,36.50
2018-12-16T17:43:02.492Z,38.37
2018-12-16T17:45:34.708Z,42.80
2018-12-16T17:48:06.883Z,39.60
2018-12-16T17:50:43.250Z,42.13
2018-12-16T17:53:19.643Z,40.90
2018-12-16T17:55:51.862Z,39.77
2018-12-16T17:58:24.782Z,39.13
2018-12-16T18:00:57.534Z,39.73
2018-12-16T18:03:29.674Z,39.63
2018-12-16T18:06:01.961Z,40.10
2018-12-16T18:08:34.240Z,45.23
2018-12-16T18:11:10.636Z,38.93
2018-12-16T18:13:43.728Z,39.30
2018-12-16T18:16:15.977Z,37.93
2018-12-16T18:18:49.040Z,40.90
2018-12-16T18:21:21.393Z,41.70
2018-12-16T18:23:54.240Z,39.07
2018-12-16T18:26:27.039Z,37.03
2018-12-16T18:28:59.462Z,39.83
2018-12-16T18:31:32.345Z,41.10
2018-12-16T18:34:04.734Z,41.10
2018-12-16T18:36:37.129Z,36.60
2018-12-16T18:39:13.604Z,38.80
2018-12-16T18:41:47.141Z,42.07
2018-12-16T18:44:19.581Z,41.57
2018-12-16T18:46:52.680Z,41.73
2018-12-16T18:49:26.300Z,43.97
2018-12-16T18:51:58.840Z,43.57
2018-12-16T18:54:31.340Z,44.40
2018-12-16T18:57:08.357Z,43.27
2018-12-16T18:59:41.361Z,39.87
2018-12-16T19:02:14.561Z,39.90
2018-12-16T19:04:51.500Z,42.13
2018-12-16T19:07:23.785Z,41.40
2018-12-16T19:09:56.187Z,44.40
2018-12-16T19:12:32.380Z,43.57
2018-12-16T19:15:06.136Z,42.07
2018-12-16T19:17:39.428Z,51.47
2018-12-16T19:20:11.770Z,40.90
2018-12-16T19:22:43.744Z,41.97
2018-12-16T19:25:16.335Z,55.47
2018-12-16T19:27:48.753Z,42.13
2018-12-16T19:30:20.935Z,44.03
2018-12-16T19:32:53.416Z,42.93
2018-12-16T19:35:26.327Z,41.73
2018-12-16T19:37:58.467Z,44.50
2018-12-16T19:40:34.739Z,42.33
2018-12-16T19:43:11.063Z,42.20
2018-12-16T19:45:43.423Z,43.80
2018-12-16T19:48:16.626Z,42.97
2018-12-16T19:50:49.894Z,43.83
2018-12-16T19:53:22.418Z,45.87
2018-12-16T19:55:54.563Z,40.70
2018-12-16T19:58:26.915Z,39.93
2018-12-16T20:01:04.084Z,42.77
2018-12-16T20:03:38.628Z,44.27
2018-12-16T20:06:50.362Z,43.20
2018-12-16T20:09:23.350Z,46.87
2018-12-16T20:11:59.659Z,43.30
2018-12-16T20:14:31.997Z,41.00
2018-12-16T20:17:09.326Z,42.10
2018-12-16T20:19:42.561Z,42.13
2018-12-16T20:22:15.631Z,45.47
2018-12-16T20:24:48.079Z,51.97
2018-12-16T20:27:19.169Z,44.23
2018-12-16T20:29:51.704Z,49.10
2018-12-16T20:32:24.807Z,47.17
2018-12-16T20:34:57.390Z,45.23
2018-12-16T20:37:30.134Z,47.33
2018-12-16T20:40:02.596Z,44.67
2018-12-16T20:42:35.590Z,44.73
2018-12-16T20:45:08.393Z,43.10
2018-12-16T20:47:41.410Z,45.90
2018-12-16T20:50:13.977Z,43.77
2018-12-16T20:52:46.249Z,45.43
2018-12-16T20:55:18.517Z,51.70
2018-12-16T20:57:55.080Z,51.77
2018-12-16T21:00:28.044Z,44.80
2018-12-16T21:03:00.321Z,44.50
2018-12-16T21:05:32.823Z,45.60
2018-12-16T21:08:06.015Z,44.27
2018-12-16T21:10:38.706Z,40.67
2018-12-16T21:13:15.984Z,48.20
2018-12-16T21:15:57.316Z,42.27
2018-12-16T21:18:30.826Z,44.73
2018-12-16T21:21:03.887Z,49.60
2018-12-16T21:23:40.421Z,65.63
2018-12-16T21:26:13.472Z,70.50
2018-12-16T21:28:46.022Z,49.83
2018-12-16T21:31:18.523Z,45.83
2018-12-16T21:33:51.541Z,47.43
2018-12-16T21:36:27.732Z,46.90
2018-12-16T21:39:00.038Z,48.87
2018-12-16T21:41:32.719Z,41.77
2018-12-16T21:44:08.791Z,46.40
2018-12-16T21:46:41.513Z,47.37
2018-12-16T21:49:13.787Z,46.40
2018-12-16T21:51:46.179Z,48.57
2018-12-16T21:54:18.668Z,48.83
2018-12-16T21:56:50.970Z,43.97
2018-12-16T21:59:24.197Z,50.33
2018-12-16T22:01:56.584Z,49.10
2018-12-16T22:04:29.484Z,46.10
2018-12-16T22:07:06.523Z,46.57
2018-12-16T22:09:38.758Z,44.13
2018-12-16T22:12:11.024Z,45.10
2018-12-16T22:14:43.549Z,49.73
2018-12-16T22:17:15.820Z,44.40
2018-12-16T22:19:48.813Z,46.33
2018-12-16T22:22:21.865Z,44.73
2018-12-16T22:24:54.105Z,45.13
2018-12-16T22:27:30.604Z,46.73
2018-12-16T22:30:07.068Z,43.90
2018-12-16T22:32:39.467Z,44.77
2018-12-16T22:35:12.518Z,44.43
2018-12-16T22:37:45.025Z,53.07
2018-12-16T22:40:21.384Z,47.60
2018-12-16T22:42:53.672Z,50.50
2018-12-16T22:45:26.144Z,44.67
2018-12-16T22:47:58.636Z,54.43
2018-12-16T22:50:31.726Z,48.07
2018-12-16T22:53:09.103Z,47.43
2018-12-16T22:55:41.405Z,50.17
2018-12-16T22:58:13.737Z,72.37
2018-12-16T23:00:51.969Z,45.77
2018-12-16T23:03:24.716Z,50.07
2018-12-16T23:05:57.703Z,50.93
2018-12-16T23:08:30.730Z,47.37
2018-12-16T23:11:03.772Z,44.40
2018-12-16T23:13:36.021Z,49.90
2018-12-16T23:16:08.165Z,47.47
2018-12-16T23:18:44.926Z,50.90
2018-12-16T23:21:17.768Z,47.43
2018-12-16T23:23:53.947Z,46.47
2018-12-16T23:26:26.104Z,51.57
2018-12-16T23:28:58.432Z,46.23
2018-12-16T23:31:34.498Z,41.90
2018-12-16T23:34:07.126Z,48.53
2018-12-16T23:36:44.088Z,49.10
2018-12-16T23:39:17.195Z,46.10
2018-12-16T23:41:49.311Z,52.90
2018-12-16T23:44:22.381Z,52.63
2018-12-16T23:46:59.034Z,46.07
2018-12-16T23:49:32.416Z,46.70
2018-12-16T23:52:05.306Z,49.40
2018-12-16T23:54:37.861Z,49.67
2018-12-16T23:57:09.385Z,49.63
2018-12-16T23:59:42.262Z,49.03
